Baptistown, New Jersey
Current Conditions -  °F | °C
As of 3:02 AM on Monday 24 Nov 2014 (Local Time) from KDYL Reporting Station
Moderate Rain Moderate Rain  
Wind Chill: 55°   Ceiling: 300
Heat Index: 55°   Visibility: 6mi
Dew Point: 55°   Wind: 8mph
Humidity: 100%   Direction: 140°SE
Pressure: 29.72"   Gusts: NA
Location:  40.52°N, 75.01°W
Report Text: KDYL 240802Z AUTO 14007KT 110V180 6SM RA BR OVC003 13/13 A2972 RMK AO2 PRESFR P0003 T01280128
Loading
Personal Weather Stations






























Interactive Weather Map New forecast layout! Learn more

10-Day Weather Forecast

Advertisements
Track Severe Weather on mobile